createdAt,value
2017-12-17T00:02:14.887Z,89.78
2017-12-17T00:04:43.736Z,89.28
2017-12-17T00:07:12.122Z,88.95
2017-12-17T00:09:40.490Z,89.33
2017-12-17T00:12:09.204Z,89.82
2017-12-17T00:14:37.568Z,90.20
2017-12-17T00:17:05.937Z,90.33
2017-12-17T00:19:34.354Z,90.40
2017-12-17T00:22:02.753Z,90.34
2017-12-17T00:24:31.063Z,90.30
2017-12-17T00:26:59.367Z,90.22
2017-12-17T00:29:27.737Z,89.98
2017-12-17T00:31:56.040Z,90.12
2017-12-17T00:34:25.130Z,89.97
2017-12-17T00:36:54.707Z,89.94
2017-12-17T00:39:23.034Z,89.85
2017-12-17T00:41:51.347Z,89.76
2017-12-17T00:44:19.711Z,89.72
2017-12-17T00:46:48.213Z,89.91
2017-12-17T00:49:16.487Z,89.93
2017-12-17T00:51:44.837Z,90.08
2017-12-17T00:54:13.156Z,89.68
2017-12-17T00:56:41.732Z,89.86
2017-12-17T00:59:10.275Z,89.80
2017-12-17T01:01:39.227Z,90.00
2017-12-17T01:04:07.564Z,89.75
2017-12-17T01:06:35.927Z,89.53
2017-12-17T01:09:04.244Z,89.27
2017-12-17T01:11:32.547Z,89.38
2017-12-17T01:14:01.640Z,89.18
2017-12-17T01:16:30.716Z,88.86
2017-12-17T01:18:59.456Z,87.94
2017-12-17T01:21:27.781Z,87.65
2017-12-17T01:23:56.100Z,87.12
2017-12-17T01:26:24.924Z,87.29
2017-12-17T01:28:53.244Z,86.86
2017-12-17T01:31:21.717Z,86.50
2017-12-17T01:33:50.084Z,86.32
2017-12-17T01:36:18.383Z,86.58
2017-12-17T01:38:47.355Z,86.69
2017-12-17T01:41:16.157Z,86.78
2017-12-17T01:43:45.220Z,86.66
2017-12-17T01:46:13.531Z,86.44
2017-12-17T01:48:42.225Z,86.14
2017-12-17T01:51:10.488Z,85.51
2017-12-17T01:53:38.795Z,85.59
2017-12-17T01:56:07.375Z,85.62
2017-12-17T01:58:36.125Z,85.40
2017-12-17T02:01:04.420Z,85.30
2017-12-17T02:03:33.144Z,85.41
2017-12-17T02:06:01.508Z,85.42
2017-12-17T02:08:29.847Z,85.63
2017-12-17T02:10:58.196Z,85.83
2017-12-17T02:13:26.503Z,86.02
2017-12-17T02:15:54.828Z,85.84
2017-12-17T02:18:23.127Z,85.74
2017-12-17T02:20:51.459Z,85.77
2017-12-17T02:23:19.807Z,86.29
2017-12-17T02:25:48.111Z,85.85
2017-12-17T02:28:16.824Z,85.87
2017-12-17T02:30:45.488Z,85.65
2017-12-17T02:33:14.233Z,86.08
2017-12-17T02:35:42.532Z,86.25
2017-12-17T02:38:11.263Z,86.30
2017-12-17T02:40:39.804Z,86.50
2017-12-17T02:43:08.144Z,85.70
2017-12-17T02:45:36.586Z,85.65
2017-12-17T02:48:04.893Z,85.67
2017-12-17T02:50:33.200Z,85.75
2017-12-17T02:53:01.544Z,86.00
2017-12-17T02:55:29.844Z,86.05
2017-12-17T02:57:58.633Z,86.52
2017-12-17T03:00:27.856Z,86.35
2017-12-17T03:02:56.786Z,86.83
2017-12-17T03:05:25.093Z,86.93
2017-12-17T03:07:53.700Z,86.82
2017-12-17T03:10:22.000Z,86.61
2017-12-17T03:12:50.883Z,86.79
2017-12-17T03:15:19.303Z,86.37
2017-12-17T03:17:47.620Z,86.08
2017-12-17T03:20:16.071Z,86.49
2017-12-17T03:22:44.415Z,86.30
2017-12-17T03:25:12.733Z,85.20
2017-12-17T03:27:41.099Z,85.70
2017-12-17T03:30:09.408Z,85.76
2017-12-17T03:32:37.972Z,86.22
2017-12-17T03:35:06.291Z,85.80
2017-12-17T03:37:34.583Z,85.25
2017-12-17T03:40:02.888Z,85.68
2017-12-17T03:42:31.304Z,85.20
2017-12-17T03:44:59.600Z,85.21
2017-12-17T03:47:30.028Z,84.87
2017-12-17T03:49:58.448Z,84.58
2017-12-17T03:52:27.273Z,84.79
2017-12-17T03:54:55.816Z,84.90
2017-12-17T03:57:24.117Z,85.05
2017-12-17T03:59:52.412Z,85.01
2017-12-17T04:02:22.268Z,84.58
2017-12-17T04:04:50.567Z,84.53
2017-12-17T04:07:18.904Z,84.10
2017-12-17T04:09:47.732Z,84.23
2017-12-17T04:12:16.036Z,84.57
2017-12-17T04:14:44.392Z,84.70
2017-12-17T04:17:12.723Z,83.42
2017-12-17T04:19:41.084Z,83.78
2017-12-17T04:22:09.393Z,83.97
2017-12-17T04:24:37.697Z,83.99
2017-12-17T04:27:06.050Z,83.88
2017-12-17T04:29:35.118Z,83.81
2017-12-17T04:32:03.424Z,84.22
2017-12-17T04:34:31.780Z,83.93
2017-12-17T04:37:00.136Z,83.21
2017-12-17T04:39:28.443Z,84.07
2017-12-17T04:41:56.792Z,83.23
2017-12-17T04:44:25.096Z,82.78
2017-12-17T04:46:53.400Z,83.37
2017-12-17T04:49:21.760Z,83.36
2017-12-17T04:51:50.181Z,83.86
2017-12-17T04:54:18.524Z,84.52
2017-12-17T04:56:46.859Z,84.95
2017-12-17T04:59:15.167Z,85.01
2017-12-17T05:01:43.632Z,84.71
2017-12-17T05:04:13.445Z,85.11
2017-12-17T05:06:41.763Z,85.54
2017-12-17T05:09:10.132Z,85.86
2017-12-17T05:11:38.789Z,86.77
2017-12-17T05:14:07.124Z,87.03
2017-12-17T05:16:35.488Z,86.78
2017-12-17T05:19:03.577Z,86.98
2017-12-17T05:21:31.891Z,87.22
2017-12-17T05:24:00.229Z,86.63
2017-12-17T05:26:28.684Z,86.00
2017-12-17T05:28:56.993Z,86.26
2017-12-17T05:31:25.385Z,86.64
2017-12-17T05:33:53.694Z,86.36
2017-12-17T05:36:22.017Z,86.42
2017-12-17T05:38:50.669Z,86.20
2017-12-17T05:41:18.985Z,86.12
2017-12-17T05:43:47.810Z,86.22
2017-12-17T05:46:16.310Z,86.34
2017-12-17T05:48:45.271Z,86.05
2017-12-17T05:51:14.367Z,86.09
2017-12-17T05:53:42.725Z,85.79
2017-12-17T05:56:11.048Z,85.46
2017-12-17T05:58:39.359Z,85.39
2017-12-17T06:01:07.740Z,85.35
2017-12-17T06:03:36.048Z,85.62
2017-12-17T06:06:04.366Z,85.18
2017-12-17T06:08:32.737Z,85.01
2017-12-17T06:11:01.818Z,85.16
2017-12-17T06:13:30.132Z,85.56
2017-12-17T06:15:59.256Z,85.76
2017-12-17T06:18:27.560Z,85.81
2017-12-17T06:20:55.890Z,85.74
2017-12-17T06:23:24.253Z,85.76
2017-12-17T06:25:52.580Z,85.75
2017-12-17T06:28:20.894Z,85.72
2017-12-17T06:30:49.384Z,85.42
2017-12-17T06:33:17.807Z,85.35
2017-12-17T06:35:46.468Z,85.26
2017-12-17T06:38:14.816Z,84.62
2017-12-17T06:40:43.304Z,85.38
2017-12-17T06:43:11.622Z,84.59
2017-12-17T06:45:40.452Z,84.96
2017-12-17T06:48:08.945Z,84.91
2017-12-17T06:50:37.252Z,84.78
2017-12-17T06:53:05.701Z,85.15
2017-12-17T06:55:34.744Z,85.19
2017-12-17T06:58:03.053Z,84.88
2017-12-17T07:00:31.419Z,84.60
2017-12-17T07:02:59.732Z,83.94
2017-12-17T07:05:28.053Z,84.31
2017-12-17T07:07:56.375Z,82.92
2017-12-17T07:10:24.700Z,82.62
2017-12-17T07:12:53.063Z,83.09
2017-12-17T07:15:21.380Z,82.91
2017-12-17T07:17:50.028Z,82.69
2017-12-17T07:20:18.973Z,82.11
2017-12-17T07:22:47.304Z,82.64
2017-12-17T07:25:15.620Z,82.70
2017-12-17T07:27:43.952Z,82.69
2017-12-17T07:30:12.264Z,83.16
2017-12-17T07:32:40.573Z,81.81
2017-12-17T07:35:08.943Z,81.58
2017-12-17T07:37:37.252Z,82.91
2017-12-17T07:40:06.332Z,83.65
2017-12-17T07:42:35.140Z,83.95
2017-12-17T07:45:03.448Z,84.54
2017-12-17T07:47:31.758Z,84.83
2017-12-17T07:50:01.609Z,84.37
2017-12-17T07:52:29.924Z,83.72
2017-12-17T07:54:58.436Z,83.67
2017-12-17T07:57:26.820Z,84.04
2017-12-17T07:59:55.511Z,84.03
2017-12-17T08:02:23.824Z,84.24
2017-12-17T08:04:52.160Z,84.12
2017-12-17T08:07:20.455Z,83.29
2017-12-17T08:09:48.756Z,84.15
2017-12-17T08:12:17.103Z,83.31
2017-12-17T08:14:45.548Z,83.34
2017-12-17T08:17:14.539Z,84.08
2017-12-17T08:19:43.400Z,83.34
2017-12-17T08:22:12.264Z,82.09
2017-12-17T08:24:40.655Z,81.90
2017-12-17T08:27:08.961Z,82.64
2017-12-17T08:29:37.400Z,81.91
2017-12-17T08:32:05.704Z,81.73
2017-12-17T08:34:34.895Z,81.76
2017-12-17T08:37:03.260Z,81.62
2017-12-17T08:39:32.341Z,82.35
2017-12-17T08:42:00.656Z,81.90
2017-12-17T08:44:30.375Z,81.96
2017-12-17T08:46:58.698Z,81.55
2017-12-17T08:49:27.604Z,80.21
2017-12-17T08:51:55.916Z,79.67
2017-12-17T08:54:24.233Z,79.80
2017-12-17T08:56:53.149Z,79.85
2017-12-17T08:59:21.936Z,79.52
2017-12-17T09:01:50.241Z,78.47
2017-12-17T09:04:18.584Z,78.87
2017-12-17T09:06:47.678Z,79.38
2017-12-17T09:09:15.987Z,77.77
2017-12-17T09:11:44.347Z,77.42
2017-12-17T09:14:12.687Z,77.19
2017-12-17T09:16:40.988Z,76.80
2017-12-17T09:19:09.366Z,76.93
2017-12-17T09:21:37.708Z,76.68
2017-12-17T09:24:06.009Z,77.12
2017-12-17T09:26:34.716Z,75.32
2017-12-17T09:29:03.037Z,75.68
2017-12-17T09:31:31.358Z,76.33
2017-12-17T09:33:59.714Z,74.19
2017-12-17T09:36:28.245Z,75.00
2017-12-17T09:38:57.338Z,74.84
2017-12-17T09:41:25.696Z,77.03
2017-12-17T09:43:54.004Z,76.57
2017-12-17T09:46:22.683Z,76.34
2017-12-17T09:48:51.070Z,74.11
2017-12-17T09:51:19.389Z,73.94
2017-12-17T09:53:47.760Z,74.61
2017-12-17T09:56:16.067Z,72.24
2017-12-17T09:58:44.404Z,72.47
2017-12-17T10:01:13.358Z,71.50
2017-12-17T10:03:41.807Z,71.96
2017-12-17T10:06:12.240Z,70.37
2017-12-17T10:08:40.549Z,71.07
2017-12-17T10:11:09.820Z,70.29
2017-12-17T10:13:38.124Z,69.61
2017-12-17T10:16:06.928Z,69.60
2017-12-17T10:18:35.332Z,69.56
2017-12-17T10:21:03.639Z,69.09
2017-12-17T10:23:32.042Z,69.70
2017-12-17T10:26:00.350Z,70.20
2017-12-17T10:28:28.687Z,69.40
2017-12-17T10:30:57.013Z,70.29
2017-12-17T10:33:25.424Z,69.13
2017-12-17T10:35:55.920Z,69.29
2017-12-17T10:38:24.377Z,69.33
2017-12-17T10:40:53.444Z,68.14
2017-12-17T10:43:21.808Z,67.39
2017-12-17T10:45:50.136Z,67.95
2017-12-17T10:48:18.744Z,68.37
2017-12-17T10:50:47.132Z,67.01
2017-12-17T10:53:15.449Z,67.14
2017-12-17T10:55:43.762Z,65.99
2017-12-17T10:58:12.681Z,63.84
2017-12-17T11:00:41.032Z,63.04
2017-12-17T11:03:09.358Z,63.63
2017-12-17T11:05:37.714Z,63.90
2017-12-17T11:08:06.015Z,64.32
2017-12-17T11:10:34.327Z,63.01
2017-12-17T11:13:02.659Z,61.55
2017-12-17T11:15:30.998Z,61.40
2017-12-17T11:17:59.544Z,59.63
2017-12-17T11:20:27.971Z,60.35
2017-12-17T11:22:56.284Z,62.98
2017-12-17T11:25:24.591Z,62.76
2017-12-17T11:27:52.936Z,64.21
2017-12-17T11:30:21.235Z,64.44
2017-12-17T11:32:49.545Z,63.43
2017-12-17T11:35:17.950Z,63.90
2017-12-17T11:37:46.788Z,63.82
2017-12-17T11:40:15.096Z,63.74
2017-12-17T11:42:43.473Z,64.06
2017-12-17T11:45:11.781Z,64.21
2017-12-17T11:47:40.080Z,63.86
2017-12-17T11:50:08.581Z,64.03
2017-12-17T11:52:36.904Z,65.99
2017-12-17T11:55:05.212Z,64.09
2017-12-17T11:57:33.867Z,64.02
2017-12-17T12:00:02.210Z,64.72
2017-12-17T12:02:30.520Z,64.81
2017-12-17T12:04:59.469Z,65.13
2017-12-17T12:07:27.785Z,64.94
2017-12-17T12:09:56.133Z,65.95
2017-12-17T12:12:24.475Z,66.09
2017-12-17T12:14:53.032Z,66.35
2017-12-17T12:17:21.340Z,66.16
2017-12-17T12:19:49.708Z,66.40
2017-12-17T12:22:18.070Z,66.65
2017-12-17T12:24:46.368Z,66.67
2017-12-17T12:27:14.711Z,67.00
2017-12-17T12:29:43.007Z,67.15
2017-12-17T12:32:11.357Z,67.31
2017-12-17T12:34:39.754Z,66.93
2017-12-17T12:37:08.050Z,67.73
2017-12-17T12:39:36.367Z,67.63
2017-12-17T12:42:04.724Z,66.89
2017-12-17T12:44:33.022Z,67.01
2017-12-17T12:47:02.092Z,66.95
2017-12-17T12:49:30.443Z,67.08
2017-12-17T12:51:58.796Z,66.68
2017-12-17T12:54:27.154Z,66.82
2017-12-17T12:56:56.360Z,66.61
2017-12-17T12:59:24.656Z,66.94
2017-12-17T13:01:52.961Z,66.68
2017-12-17T13:04:21.319Z,66.63
2017-12-17T13:06:49.619Z,67.21
2017-12-17T13:09:17.928Z,66.63
2017-12-17T13:11:46.322Z,67.08
2017-12-17T13:14:15.401Z,67.19
2017-12-17T13:16:43.751Z,67.73
2017-12-17T13:19:12.091Z,68.15
2017-12-17T13:21:40.546Z,67.11
2017-12-17T13:24:08.864Z,67.91
2017-12-17T13:26:37.253Z,67.15
2017-12-17T13:29:05.563Z,67.46
2017-12-17T13:31:33.873Z,67.34
2017-12-17T13:34:02.241Z,67.68
2017-12-17T13:36:31.324Z,67.86
2017-12-17T13:38:59.626Z,66.41
2017-12-17T13:41:27.968Z,67.05
2017-12-17T13:43:56.317Z,67.17
2017-12-17T13:46:24.616Z,66.99
2017-12-17T13:48:52.956Z,67.84
2017-12-17T13:51:21.309Z,67.34
2017-12-17T13:53:49.655Z,68.18
2017-12-17T13:56:18.154Z,68.07
2017-12-17T13:58:46.467Z,67.46
2017-12-17T14:01:14.768Z,68.30
2017-12-17T14:03:43.223Z,68.55
2017-12-17T14:06:11.646Z,69.45
2017-12-17T14:08:39.949Z,68.86
2017-12-17T14:11:08.303Z,69.37
2017-12-17T14:13:36.972Z,69.34
2017-12-17T14:16:05.272Z,69.63
2017-12-17T14:18:34.360Z,69.46
2017-12-17T14:21:02.776Z,70.09
2017-12-17T14:23:31.875Z,70.37
2017-12-17T14:26:00.978Z,70.82
2017-12-17T14:28:29.449Z,71.22
2017-12-17T14:30:58.616Z,71.44
2017-12-17T14:33:27.076Z,71.72
2017-12-17T14:35:55.582Z,71.76
2017-12-17T14:38:27.852Z,71.36
2017-12-17T14:40:56.167Z,72.01
2017-12-17T14:43:24.539Z,72.40
2017-12-17T14:45:52.900Z,72.54
2017-12-17T14:48:21.219Z,72.85
2017-12-17T14:50:49.520Z,72.95
2017-12-17T14:53:17.887Z,72.82
2017-12-17T14:55:46.559Z,72.80
2017-12-17T14:58:15.070Z,72.95
2017-12-17T15:00:43.413Z,72.43
2017-12-17T15:03:11.762Z,72.43
2017-12-17T15:05:40.756Z,72.06
2017-12-17T15:08:09.925Z,72.04
2017-12-17T15:10:38.236Z,71.90
2017-12-17T15:13:06.596Z,71.51
2017-12-17T15:15:34.898Z,70.52
2017-12-17T15:18:04.117Z,70.55
2017-12-17T15:20:32.584Z,70.09
2017-12-17T15:23:00.925Z,70.30
2017-12-17T15:25:29.244Z,70.49
2017-12-17T15:27:58.419Z,70.48
2017-12-17T15:30:27.505Z,70.49
2017-12-17T15:32:56.416Z,70.55
2017-12-17T15:35:24.924Z,70.54
2017-12-17T15:37:53.280Z,70.67
2017-12-17T15:40:21.890Z,70.40
2017-12-17T15:42:50.325Z,70.42
2017-12-17T15:45:18.805Z,70.11
2017-12-17T15:47:47.940Z,70.20
2017-12-17T15:50:16.784Z,70.60
2017-12-17T15:52:45.980Z,70.68
2017-12-17T15:55:14.700Z,70.90
2017-12-17T15:57:45.736Z,71.28
2017-12-17T16:00:14.376Z,71.69
2017-12-17T16:02:44.104Z,71.85
2017-12-17T16:05:13.399Z,71.65
2017-12-17T16:07:43.944Z,72.13
2017-12-17T16:10:12.306Z,72.31
2017-12-17T16:12:40.672Z,72.62
2017-12-17T16:15:09.078Z,73.19
2017-12-17T16:17:38.165Z,72.89
2017-12-17T16:20:06.484Z,73.01
2017-12-17T16:22:34.904Z,73.72
2017-12-17T16:25:05.295Z,75.12
2017-12-17T16:27:33.647Z,76.15
2017-12-17T16:30:02.072Z,73.63
2017-12-17T16:32:30.605Z,73.37
2017-12-17T16:34:59.079Z,73.92
2017-12-17T16:37:27.439Z,73.92
2017-12-17T16:39:55.816Z,74.16
2017-12-17T16:42:24.148Z,74.73
2017-12-17T16:44:52.512Z,74.97
2017-12-17T16:47:21.742Z,75.44
2017-12-17T16:49:50.099Z,75.71
2017-12-17T16:52:18.467Z,75.77
2017-12-17T16:54:46.875Z,76.03
2017-12-17T16:57:15.321Z,75.75
2017-12-17T16:59:44.399Z,76.12
2017-12-17T17:02:13.447Z,76.11
2017-12-17T17:04:41.785Z,76.44
2017-12-17T17:07:10.113Z,76.54
2017-12-17T17:09:38.567Z,76.74
2017-12-17T17:12:08.244Z,77.05
2017-12-17T17:14:37.320Z,76.86
2017-12-17T17:17:05.724Z,76.62
2017-12-17T17:19:34.090Z,76.98
2017-12-17T17:22:02.525Z,76.29
2017-12-17T17:24:30.905Z,75.74
2017-12-17T17:26:59.440Z,75.94
2017-12-17T17:29:27.792Z,75.55
2017-12-17T17:31:56.568Z,76.26
2017-12-17T17:34:25.150Z,76.19
2017-12-17T17:36:53.876Z,76.75
2017-12-17T17:39:23.089Z,76.97
2017-12-17T17:41:51.547Z,76.68
2017-12-17T17:44:19.911Z,76.82
2017-12-17T17:46:48.624Z,76.54
2017-12-17T17:49:17.200Z,77.12
2017-12-17T17:51:45.568Z,77.23
2017-12-17T17:54:14.051Z,76.95
2017-12-17T17:56:42.468Z,78.34
2017-12-17T17:59:10.815Z,76.64
2017-12-17T18:01:39.183Z,75.86
2017-12-17T18:04:08.056Z,75.26
2017-12-17T18:06:36.416Z,75.79
2017-12-17T18:09:04.783Z,76.09
2017-12-17T18:11:33.479Z,76.83
2017-12-17T18:14:01.844Z,76.96
2017-12-17T18:16:30.144Z,76.09
2017-12-17T18:18:58.497Z,76.50
2017-12-17T18:21:27.489Z,75.64
2017-12-17T18:23:55.850Z,75.24
2017-12-17T18:26:24.985Z,75.53
2017-12-17T18:28:53.762Z,76.20
2017-12-17T18:31:22.180Z,75.94
2017-12-17T18:33:50.556Z,75.77
2017-12-17T18:36:20.109Z,75.84
2017-12-17T18:38:49.227Z,76.01
2017-12-17T18:41:17.626Z,76.02
2017-12-17T18:43:46.128Z,75.65
2017-12-17T18:46:14.529Z,75.82
2017-12-17T18:48:44.353Z,75.74
2017-12-17T18:51:14.476Z,75.49
2017-12-17T18:53:43.093Z,75.39
2017-12-17T18:56:11.449Z,75.38
2017-12-17T18:58:40.564Z,76.49
2017-12-17T19:01:08.915Z,76.77
2017-12-17T19:03:39.436Z,76.11
2017-12-17T19:06:07.872Z,76.93
2017-12-17T19:08:36.240Z,76.50
2017-12-17T19:11:04.608Z,76.75
2017-12-17T19:13:33.860Z,76.04
2017-12-17T19:16:02.147Z,75.91
2017-12-17T19:18:30.888Z,76.44
2017-12-17T19:20:59.292Z,74.96
2017-12-17T19:23:27.859Z,76.03
2017-12-17T19:25:56.231Z,74.87
2017-12-17T19:28:24.630Z,75.49
2017-12-17T19:30:53.660Z,75.08
2017-12-17T19:33:22.011Z,74.70
2017-12-17T19:35:50.420Z,74.91
2017-12-17T19:38:18.774Z,75.31
2017-12-17T19:40:47.141Z,75.18
2017-12-17T19:43:15.526Z,74.59
2017-12-17T19:45:43.935Z,74.39
2017-12-17T19:48:13.064Z,75.75
2017-12-17T19:50:41.478Z,75.35
2017-12-17T19:53:09.932Z,74.58
2017-12-17T19:55:38.740Z,74.71
2017-12-17T19:58:07.135Z,75.02
2017-12-17T20:00:35.589Z,75.11
2017-12-17T20:03:03.895Z,75.00
2017-12-17T20:05:32.721Z,75.33
2017-12-17T20:08:01.107Z,75.26
2017-12-17T20:10:29.723Z,74.67
2017-12-17T20:12:58.136Z,74.79
2017-12-17T20:15:26.492Z,75.64
2017-12-17T20:17:54.855Z,75.36
2017-12-17T20:20:23.571Z,75.36
2017-12-17T20:22:51.941Z,75.18
2017-12-17T20:25:20.299Z,75.61
2017-12-17T20:27:48.803Z,75.11
2017-12-17T20:30:17.448Z,75.68
2017-12-17T20:32:46.671Z,75.62
2017-12-17T20:35:15.092Z,75.74
2017-12-17T20:37:43.875Z,75.62
2017-12-17T20:40:12.244Z,75.57
2017-12-17T20:42:40.671Z,75.70
2017-12-17T20:45:09.047Z,75.70
2017-12-17T20:47:37.463Z,75.69
2017-12-17T20:50:06.011Z,75.60
2017-12-17T20:52:34.377Z,75.82
2017-12-17T20:55:03.355Z,75.54
2017-12-17T20:57:31.726Z,75.91
2017-12-17T21:00:00.847Z,76.08
2017-12-17T21:02:29.267Z,76.36
2017-12-17T21:04:57.623Z,76.41
2017-12-17T21:07:25.987Z,76.21
2017-12-17T21:09:54.399Z,76.18
2017-12-17T21:12:22.774Z,76.60
2017-12-17T21:14:51.132Z,76.45
2017-12-17T21:17:21.067Z,77.03
2017-12-17T21:19:49.427Z,77.17
2017-12-17T21:22:17.788Z,77.06
2017-12-17T21:24:46.191Z,77.01
2017-12-17T21:27:14.552Z,77.22
2017-12-17T21:29:42.916Z,77.44
2017-12-17T21:32:11.315Z,77.42
2017-12-17T21:34:39.807Z,78.08
2017-12-17T21:37:08.448Z,79.07
2017-12-17T21:39:37.631Z,78.78
2017-12-17T21:42:05.995Z,78.89
2017-12-17T21:44:35.896Z,78.59
2017-12-17T21:47:04.768Z,78.95
2017-12-17T21:49:33.124Z,79.34
2017-12-17T21:52:02.352Z,79.34
2017-12-17T21:54:30.778Z,79.18
2017-12-17T21:56:59.420Z,78.99
2017-12-17T21:59:27.783Z,78.92
2017-12-17T22:01:56.691Z,78.76
2017-12-17T22:04:25.052Z,78.81
2017-12-17T22:06:53.653Z,78.70
2017-12-17T22:09:23.155Z,78.85
2017-12-17T22:11:52.209Z,78.85
2017-12-17T22:14:21.006Z,78.78
2017-12-17T22:16:49.375Z,78.92
2017-12-17T22:19:18.079Z,79.08
2017-12-17T22:21:46.439Z,79.21
2017-12-17T22:24:15.843Z,79.18
2017-12-17T22:26:44.276Z,79.44
2017-12-17T22:29:12.863Z,78.78
2017-12-17T22:31:41.235Z,78.84
2017-12-17T22:34:10.415Z,78.57
2017-12-17T22:36:38.772Z,78.35
2017-12-17T22:39:08.239Z,78.21
2017-12-17T22:41:36.639Z,78.37
2017-12-17T22:44:04.993Z,78.44
2017-12-17T22:46:33.363Z,78.83
2017-12-17T22:49:01.800Z,79.08
2017-12-17T22:51:30.155Z,78.92
2017-12-17T22:53:58.523Z,78.81
2017-12-17T22:56:27.711Z,78.47
2017-12-17T22:58:56.091Z,78.49
2017-12-17T23:01:24.433Z,78.37
2017-12-17T23:03:53.487Z,78.20
2017-12-17T23:06:21.834Z,78.22
2017-12-17T23:08:50.208Z,78.51
2017-12-17T23:11:18.584Z,78.52
2017-12-17T23:13:46.934Z,78.23
2017-12-17T23:16:15.243Z,78.26
2017-12-17T23:18:43.926Z,78.74
2017-12-17T23:21:12.233Z,78.29
2017-12-17T23:23:40.552Z,78.17
2017-12-17T23:26:09.543Z,78.24
2017-12-17T23:28:37.994Z,78.43
2017-12-17T23:31:06.314Z,78.32
2017-12-17T23:33:35.140Z,78.13
2017-12-17T23:36:03.445Z,78.39
2017-12-17T23:38:31.748Z,78.52
2017-12-17T23:41:00.129Z,78.57
2017-12-17T23:43:28.453Z,78.14
2017-12-17T23:45:56.762Z,78.06
2017-12-17T23:48:25.623Z,78.37
2017-12-17T23:50:53.932Z,78.32
2017-12-17T23:53:22.232Z,78.82
2017-12-17T23:55:50.584Z,78.74
2017-12-17T23:58:18.891Z,78.65
